AirNav   Air Wisconsin Up To $57,000 Bonus
 
 1039 users online  

29OR Sunrise Valley Ranch Lodge Airport
Prineville, Oregon, USA

GOING TO PRINEVILLE?


FAA INFORMATION EFFECTIVE 20 JUNE 2019

Location

FAA Identifier: 29OR
Lat/Long: 44-00-44.9500N / 120-16-49.6500W
44-00.749167N / 120-16.827500W
44.0124861 / -120.2804583
(estimated)
Elevation: 4469 ft. / 1362 m (estimated)
From city: 29 miles SE of PRINEVILLE, OR
Time zone: UTC -7 (UTC -8 during Standard Time)
Zip code: 97752

Airport Operations

Airport use: Private use. Permission required prior to landing
Activation date: 11/2017
Control tower: no
ARTCC: SEATTLE CENTER
FSS: MC MINNVILLE FLIGHT SERVICE STATION
Attendance: 
Wind indicator: yes
Segmented circle: no

Airport Services

Runway Information

Runway 18/36

Dimensions: 1915 x 70 ft. / 584 x 21 m
Surface: turf, in fair condition
RUNWAY 18  RUNWAY 36
Latitude: 44-00.906667N44-00.591667N
Longitude: 120-16.820000W120-16.835000W
Elevation: 4469.0 ft.4406.0 ft.
Traffic pattern: leftleft

Airport Ownership and Management from official FAA records

Ownership: Privately-owned
Owner: SUSAN FILDES, TRUSTEE
32500 SE TACKMAN RD
PRINEVILLE, OR 97754
Phone 541-477-3711
Manager: SUSAN FILDES
32500 SE TACKMAN RD
PRINEVILLE, OR 97754
Phone 541-477-3711

Additional Remarks

BFR VISITING CALL LODGE AT 541-477-3711 FOR CONDITIONS.
RWY COULD BE SOFTER AFTER RAIN - CALL LODGE 541-477-3711 FOR CONDITIONS
ARPT SURROUNDED BY HIGH TERRAIN
SEE AIRSPACE CASE NO. 2017-ANM-485-NRA
FOR CD CTC SEATTLE ARTCC AT 253-351-3694.

Instrument Procedures

There are no published instrument procedures at 29OR.

Some nearby airports with instrument procedures:

S39 - Prineville Airport (32 nm NW)
KBDN - Bend Municipal Airport (40 nm W)
KRDM - Roberts Field Airport (40 nm W)
S21 - Sunriver Airport (51 nm W)
S33 - Madras Municipal Airport (54 nm NW)
 
Loc | Ops | Rwys | IFR | FBO | Links
Com | Nav | Svcs | Stats | Notes
Aerial photo
No photo
 
Airport distance calculator
Flying to Sunrise Valley Ranch Lodge Airport? Find the distance to fly.

From to 29OR

Sunrise and sunset
Times for 15-Jul-2019
 Local
(UTC-7)
 Zulu
(UTC)
Morning civil twilight04:5811:58
Sunrise05:3312:33
Sunset20:4103:41
Evening civil twilight21:1604:16

Current date and time
Zulu (UTC)  16-Jul-2019 03:10:51
Local (UTC-7)  15-Jul-2019 20:10:51
 
METAR
KS39 
32nm NW 
160255Z AUTO 33010G16KT 10SM FEW055 FEW070 20/10 A3007 RMK AO2
KBDN 
40nm W 
160255Z AUTO 35009G14KT 10SM SCT060 BKN075 20/10 A3008 RMK AO2
KRDM 
40nm W 
160256Z AUTO 32010KT 10SM FEW080 21/09 A3007 RMK AO2 SLP160 T02060089 53002
TAF
KBDN 
40nm W 
151744Z 1518/1618 29006KT P6SM -SHRA BKN080 FM152100 34010G16KT P6SM VCSH SCT060 FM160200 34010KT P6SM SCT060 FM160500 VRB05KT P6SM SCT200
KRDM 
40nm W 
151743Z 1518/1618 31007KT P6SM -SHRA OVC090 FM152100 33010G16KT P6SM VCSH SCT070 FM160200 33010KT P6SM SCT070 FM160500 VRB05KT P6SM SCT200
NOTAMs
Click for the latest NOTAMs
NOTAMs are issued by the DoD/FAA and will open in a separate window not controlled by AirNav.

 

 
 

Would you like to see your business listed on this page?

 If your business provides an interesting product or service to pilots, flight crews, aircraft, or users of the Sunrise Valley Ranch Lodge Airport, you should consider listing it here.  To start the listing process, click on the button below
 
Add a business
 

Other Pages about Sunrise Valley Ranch Lodge Airport

Update a link
 
Copyright © AirNav, LLC. All rights reserved. Privacy Policy  Contact